Time;durP1;ratioP1;P1;durP2;ratioP2;P2;SDS_P1;SDS_P2;PMS_P1;PMS_P2;Temp;Humidity;BMP_temperature;BMP_pressure;BME280_temperature;BME280_humidity;BME280_pressure;Samples;Min_cycle;Max_cycle;Signal;HPM_P1;HPM_P2
2023/06/01 00:04:02;;;;;;;;;;;;;;;14.04;56.88672;102601.8;;;;-70
2023/06/01 00:09:06;;;;;;;;;;;;;;;14.06;56.78711;102598.5;;;;-71
2023/06/01 00:14:03;;;;;;;;;;;;;;;14.02;56.82715;102604;;;;-71
2023/06/01 00:19:03;;;;;;;;;;;;;;;14.03;56.66016;102597.8;;;;-69
2023/06/01 00:24:02;;;;;;;;;;;;;;;13.98;56.63184;102595.8;;;;-69
2023/06/01 00:28:52;;;;;;;0.2;0.1;;;;;;;;;;;;;-71
2023/06/01 00:29:02;;;;;;;;;;;;;;;13.94;57.05371;102598.9;;;;-72
2023/06/01 00:34:07;;;;;;;;;;;;;;;13.91;56.76953;102601.5;;;;-70
2023/06/01 00:39:03;;;;;;;;;;;;;;;13.91;56.86914;102603.5;;;;-72
2023/06/01 00:44:02;;;;;;;;;;;;;;;13.89;57.08008;102598.7;;;;-72
2023/06/01 00:49:03;;;;;;;;;;;;;;;13.87;57.30273;102592.3;;;;-69
2023/06/01 00:54:03;;;;;;;;;;;;;;;13.85;56.71484;102594.4;;;;-69
2023/06/01 00:58:53;;;;;;;0.2;0.1;;;;;;;;;;;;;-70
2023/06/01 00:59:03;;;;;;;;;;;;;;;13.81;56.94727;102591.3;;;;-70
2023/06/01 01:04:02;;;;;;;;;;;;;;;13.82;56.93555;102590.1;;;;-70
2023/06/01 01:09:09;;;;;;;;;;;;;;;13.78;56.67188;102585.8;;;;-69
2023/06/01 01:14:09;;;;;;;;;;;;;;;13.76;56.84961;102583.9;;;;-72
2023/06/01 01:19:07;;;;;;;;;;;;;;;13.75;56.84766;102585.6;;;;-70
2023/06/01 01:24:11;;;;;;;;;;;;;;;13.75;57.08398;102590.6;;;;-70
2023/06/01 01:28:56;;;;;;;0.2;0.1;;;;;;;;;;;;;-69
2023/06/01 01:29:09;;;;;;;;;;;;;;;13.71;56.88867;102585.2;;;;-70
2023/06/01 01:34:02;;;;;;;;;;;;;;;13.69;56.93066;102585.2;;;;-70
2023/06/01 01:39:02;;;;;;;;;;;;;;;13.69;57.0752;102582;;;;-72
2023/06/01 01:44:03;;;;;;;;;;;;;;;13.68;57.47852;102586;;;;-71
2023/06/01 01:49:08;;;;;;;;;;;;;;;13.65;57.7666;102588;;;;-69
2023/06/01 01:54:08;;;;;;;;;;;;;;;13.6;57.51367;102583.2;;;;-68
2023/06/01 01:58:57;;;;;;;0.2;0.1;;;;;;;;;;;;;-70
2023/06/01 01:59:07;;;;;;;;;;;;;;;13.6;58.0293;102580.8;;;;-72
2023/06/01 02:04:07;;;;;;;;;;;;;;;13.59;58.31836;102579.2;;;;-70
2023/06/01 02:09:06;;;;;;;;;;;;;;;13.55;58.23633;102575.4;;;;-70
2023/06/01 02:14:03;;;;;;;;;;;;;;;13.58;58.04883;102574.7;;;;-70
2023/06/01 02:19:02;;;;;;;;;;;;;;;13.54;58.04395;102574.2;;;;-69
2023/06/01 02:24:05;;;;;;;;;;;;;;;13.49;57.79102;102571.6;;;;-72
2023/06/01 02:29:02;;;;;;;0.2;0.1;;;;;;;;;;;;;-69
2023/06/01 02:29:16;;;;;;;;;;;;;;;13.51;57.82715;102571.4;;;;-68
2023/06/01 02:34:02;;;;;;;;;;;;;;;13.49;58.12695;102571.8;;;;-70
2023/06/01 02:39:07;;;;;;;;;;;;;;;13.47;57.90039;102569.5;;;;-69
2023/06/01 02:44:02;;;;;;;;;;;;;;;13.49;58.01465;102566.8;;;;-69
2023/06/01 02:49:03;;;;;;;;;;;;;;;13.46;58.06641;102572.3;;;;-71
2023/06/01 02:54:03;;;;;;;;;;;;;;;13.46;57.94434;102564.3;;;;-70
2023/06/01 02:58:59;;;;;;;0.2;0.1;;;;;;;;;;;;;-68
2023/06/01 02:59:09;;;;;;;;;;;;;;;13.46;58.21191;102569.6;;;;-68
2023/06/01 03:04:04;;;;;;;;;;;;;;;13.43;57.97461;102567.3;;;;-71
2023/06/01 03:09:02;;;;;;;;;;;;;;;13.42;58.19629;102563.3;;;;-70
2023/06/01 03:14:10;;;;;;;;;;;;;;;13.41;58.39648;102564.5;;;;-71
2023/06/01 03:19:04;;;;;;;;;;;;;;;13.41;58.12793;102564.7;;;;-73
2023/06/01 03:24:02;;;;;;;;;;;;;;;13.41;58.2959;102561.2;;;;-70
2023/06/01 03:29:04;;;;;;;0.2;0.1;;;;;;;;;;;;;-69
2023/06/01 03:29:13;;;;;;;;;;;;;;;13.4;58.26074;102554.1;;;;-71
2023/06/01 03:34:04;;;;;;;;;;;;;;;13.4;58.74316;102558.3;;;;-69
2023/06/01 03:39:08;;;;;;;;;;;;;;;13.38;59.03027;102547.3;;;;-71
2023/06/01 03:44:05;;;;;;;;;;;;;;;13.36;58.91699;102541.8;;;;-69
2023/06/01 03:49:05;;;;;;;;;;;;;;;13.36;59.64551;102543.2;;;;-71
2023/06/01 03:54:05;;;;;;;;;;;;;;;13.36;59.37598;102546.9;;;;-71
2023/06/01 03:59:06;;;;;;;0.2;0.1;;;;;;;;;;;;;-70
2023/06/01 03:59:16;;;;;;;;;;;;;;;13.36;59.00586;102543.4;;;;-70
2023/06/01 04:04:04;;;;;;;;;;;;;;;13.39;58.93262;102543.7;;;;-70
2023/06/01 04:09:06;;;;;;;;;;;;;;;13.4;58.89844;102545.2;;;;-70
2023/06/01 04:14:03;;;;;;;;;;;;;;;13.42;58.49902;102548.1;;;;-70
2023/06/01 04:24:04;;;;;;;;;;;;;;;13.45;58.36816;102545.4;;;;-70
2023/06/01 04:29:04;;;;;;;;;;;;;;;13.46;58.13379;102537.2;;;;-71
2023/06/01 04:29:14;;;;;;;0.2;0.1;;;;;;;;;;;;;-71
2023/06/01 04:34:02;;;;;;;;;;;;;;;13.5;58.44238;102542.6;;;;-68
2023/06/01 04:39:06;;;;;;;;;;;;;;;13.51;58.39746;102546.3;;;;-71
2023/06/01 04:44:05;;;;;;;;;;;;;;;13.51;58.35547;102542.8;;;;-69
2023/06/01 04:49:06;;;;;;;;;;;;;;;13.54;58.17773;102546.4;;;;-68
2023/06/01 04:54:02;;;;;;;;;;;;;;;13.57;58.25977;102549.5;;;;-70
2023/06/01 04:59:05;;;;;;;;;;;;;;;13.62;58.30078;102550.1;;;;-69
2023/06/01 04:59:16;;;;;;;0.2;0.1;;;;;;;;;;;;;-69
2023/06/01 05:04:03;;;;;;;;;;;;;;;13.66;58.66504;102552.5;;;;-70
2023/06/01 05:09:05;;;;;;;;;;;;;;;13.67;58.79102;102555.1;;;;-70
2023/06/01 05:14:03;;;;;;;;;;;;;;;13.71;58.66113;102555.8;;;;-69
2023/06/01 05:19:05;;;;;;;;;;;;;;;13.75;58.75586;102557;;;;-71
2023/06/01 05:24:05;;;;;;;;;;;;;;;13.79;58.55957;102555.6;;;;-71
2023/06/01 05:29:03;;;;;;;;;;;;;;;13.87;58.92871;102560.6;;;;-69
2023/06/01 05:29:13;;;;;;;0.2;0.1;;;;;;;;;;;;;-69
2023/06/01 05:34:02;;;;;;;;;;;;;;;13.94;58.89355;102563;;;;-69
2023/06/01 05:39:02;;;;;;;;;;;;;;;13.97;58.88574;102564;;;;-71
2023/06/01 05:44:03;;;;;;;;;;;;;;;14.03;59.00684;102560.7;;;;-70
2023/06/01 05:49:03;;;;;;;;;;;;;;;14.07;58.95508;102555.3;;;;-69
2023/06/01 05:54:02;;;;;;;;;;;;;;;14.15;58.82031;102553.9;;;;-71
2023/06/01 05:59:02;;;;;;;;;;;;;;;14.21;58.49121;102555.7;;;;-71
2023/06/01 05:59:12;;;;;;;0.2;0.1;;;;;;;;;;;;;-71
2023/06/01 06:04:05;;;;;;;;;;;;;;;14.3;58.83984;102554.1;;;;-70
2023/06/01 06:09:04;;;;;;;;;;;;;;;14.36;58.20898;102552.4;;;;-70
2023/06/01 06:14:02;;;;;;;;;;;;;;;14.44;57.97168;102560.1;;;;-70
2023/06/01 06:19:02;;;;;;;;;;;;;;;14.54;58.26563;102561.5;;;;-70
2023/06/01 06:24:03;;;;;;;;;;;;;;;14.62;58.68164;102560.9;;;;-69
2023/06/01 06:29:05;;;;;;;;;;;;;;;14.67;58.05762;102563.1;;;;-71
2023/06/01 06:29:15;;;;;;;0.3;0.2;;;;;;;;;;;;;-71
2023/06/01 06:34:04;;;;;;;;;;;;;;;14.75;57.5625;102559.5;;;;-69
2023/06/01 06:39:03;;;;;;;;;;;;;;;14.85;57.54199;102566.8;;;;-71
2023/06/01 06:44:02;;;;;;;;;;;;;;;14.92;57.47168;102568.9;;;;-70
2023/06/01 06:49:02;;;;;;;;;;;;;;;15.02;57.61914;102568.7;;;;-70
2023/06/01 06:54:05;;;;;;;;;;;;;;;15.16;57.61621;102573.3;;;;-70
2023/06/01 06:59:03;;;;;;;;;;;;;;;15.23;57.36816;102568.8;;;;-69
2023/06/01 06:59:19;;;;;;;0.2;0;;;;;;;;;;;;;-69
2023/06/01 07:04:02;;;;;;;;;;;;;;;15.26;57.38281;102574.7;;;;-69
2023/06/01 07:09:05;;;;;;;;;;;;;;;15.39;57.30762;102572.8;;;;-69
2023/06/01 07:14:03;;;;;;;;;;;;;;;15.56;57.02734;102568.2;;;;-71
2023/06/01 07:24:03;;;;;;;;;;;;;;;15.72;56.70898;102566;;;;-70
2023/06/01 07:29:03;;;;;;;;;;;;;;;15.79;56.45898;102572.1;;;;-70
2023/06/01 07:29:15;;;;;;;0.2;0;;;;;;;;;;;;;-70
2023/06/01 07:34:02;;;;;;;;;;;;;;;15.87;56.51465;102576.9;;;;-70
2023/06/01 07:39:04;;;;;;;;;;;;;;;15.96;56.2207;102580.5;;;;-72
2023/06/01 07:44:03;;;;;;;;;;;;;;;16.04;56.12891;102587.2;;;;-71
2023/06/01 07:49:03;;;;;;;;;;;;;;;16.12;55.90234;102581;;;;-71
2023/06/01 07:54:03;;;;;;;;;;;;;;;16.22;55.72363;102576.3;;;;-74
2023/06/01 07:59:06;;;;;;;;;;;;;;;16.36;55.52637;102570.5;;;;-73
2023/06/01 07:59:21;;;;;;;0.2;0;;;;;;;;;;;;;-73
2023/06/01 08:04:03;;;;;;;;;;;;;;;16.5;55.16016;102569.2;;;;-71
2023/06/01 08:09:02;;;;;;;;;;;;;;;16.64;54.76855;102573.8;;;;-69
2023/06/01 08:14:07;;;;;;;;;;;;;;;16.74;54.58984;102565.4;;;;-71
2023/06/01 08:19:03;;;;;;;;;;;;;;;16.86;54.2207;102559.7;;;;-70
2023/06/01 08:24:03;;;;;;;;;;;;;;;17;53.99902;102562.7;;;;-72
2023/06/01 08:29:05;;;;;;;;;;;;;;;17.12;53.78711;102559.9;;;;-70
2023/06/01 08:29:20;;;;;;;0.2;0.1;;;;;;;;;;;;;-69
2023/06/01 08:34:02;;;;;;;;;;;;;;;17.31;53.25586;102560.6;;;;-70
2023/06/01 08:39:02;;;;;;;;;;;;;;;17.53;52.80664;102551.6;;;;-70
2023/06/01 08:44:05;;;;;;;;;;;;;;;17.63;52.53418;102544.5;;;;-70
2023/06/01 08:49:03;;;;;;;;;;;;;;;17.69;52.37207;102548;;;;-69
2023/06/01 08:54:04;;;;;;;;;;;;;;;17.78;52.18945;102544.9;;;;-69
2023/06/01 08:59:03;;;;;;;;;;;;;;;17.94;52.07227;102544.6;;;;-71
2023/06/01 08:59:21;;;;;;;0.4;0.2;;;;;;;;;;;;;-70
2023/06/01 09:04:02;;;;;;;;;;;;;;;18.14;51.60742;102539.9;;;;-69
2023/06/01 09:09:02;;;;;;;;;;;;;;;18.29;51.34082;102543.6;;;;-71
2023/06/01 09:14:03;;;;;;;;;;;;;;;18.47;50.87402;102545.9;;;;-70
2023/06/01 09:19:02;;;;;;;;;;;;;;;18.66;50.74707;102542.2;;;;-69
2023/06/01 09:24:14;;;;;;;;;;;;;;;18.83;50.31152;102543.1;;;;-71
2023/06/01 09:29:05;;;;;;;;;;;;;;;19.02;49.78711;102547.8;;;;-70
2023/06/01 09:29:24;;;;;;;0.2;0.1;;;;;;;;;;;;;-70
2023/06/01 09:34:06;;;;;;;;;;;;;;;19.23;49.57129;102534.3;;;;-70
2023/06/01 09:39:07;;;;;;;;;;;;;;;19.42;49.06836;102530.7;;;;-69
2023/06/01 09:44:02;;;;;;;;;;;;;;;19.55;48.87793;102536.8;;;;-70
2023/06/01 09:49:12;;;;;;;;;;;;;;;19.92;48.30176;102536.6;;;;-70
2023/06/01 09:54:04;;;;;;;;;;;;;;;20.1;47.76172;102527.4;;;;-70
2023/06/01 09:59:08;;;;;;;;;;;;;;;20.22;47.62598;102524.7;;;;-71
2023/06/01 09:59:28;;;;;;;0.2;0.1;;;;;;;;;;;;;-73
2023/06/01 10:04:05;;;;;;;;;;;;;;;20.34;47.125;102525;;;;-68
2023/06/01 10:09:04;;;;;;;;;;;;;;;20.42;46.92773;102514.4;;;;-69
2023/06/01 10:14:03;;;;;;;;;;;;;;;20.56;46.7832;102509.9;;;;-70
2023/06/01 10:19:07;;;;;;;;;;;;;;;20.58;46.625;102506.8;;;;-70
2023/06/01 10:24:02;;;;;;;;;;;;;;;20.54;46.79297;102515;;;;-69
2023/06/01 10:29:04;;;;;;;;;;;;;;;20.48;46.85352;102519.8;;;;-68
2023/06/01 10:29:31;;;;;;;0.2;0;;;;;;;;;;;;;-70
2023/06/01 10:34:02;;;;;;;;;;;;;;;20.41;47.10938;102531.5;;;;-73
2023/06/01 10:39:14;;;;;;;;;;;;;;;20.32;47.46582;102523.4;;;;-71
2023/06/01 10:44:02;;;;;;;;;;;;;;;20.17;47.61035;102517.4;;;;-70
2023/06/01 10:49:02;;;;;;;;;;;;;;;20.07;48.02148;102512.5;;;;-70
2023/06/01 10:54:12;;;;;;;;;;;;;;;19.98;48.14746;102508.6;;;;-70
2023/06/01 10:59:17;;;;;;;;;;;;;;;19.88;48.57031;102512.8;;;;-69
2023/06/01 10:59:32;;;;;;;0.2;0;;;;;;;;;;;;;-69
2023/06/01 11:04:02;;;;;;;;;;;;;;;19.72;48.73633;102511;;;;-70
2023/06/01 11:09:10;;;;;;;;;;;;;;;19.63;49;102513.2;;;;-69
2023/06/01 11:14:16;;;;;;;;;;;;;;;19.56;49.18652;102509.8;;;;-70
2023/06/01 11:19:06;;;;;;;;;;;;;;;19.52;49.52344;102508.9;;;;-70
2023/06/01 11:24:08;;;;;;;;;;;;;;;19.48;49.72461;102503.9;;;;-70
2023/06/01 11:29:06;;;;;;;;;;;;;;;19.43;50.01465;102503.4;;;;-70
2023/06/01 11:29:37;;;;;;;0.2;0.1;;;;;;;;;;;;;-69
2023/06/01 11:34:05;;;;;;;;;;;;;;;19.37;50.19141;102508.4;;;;-71
2023/06/01 11:39:07;;;;;;;;;;;;;;;19.27;50.77148;102509.8;;;;-70
2023/06/01 11:44:02;;;;;;;;;;;;;;;19.17;51.02148;102503;;;;-69
2023/06/01 11:49:13;;;;;;;;;;;;;;;19.16;51.07715;102503.5;;;;-70
2023/06/01 11:54:04;;;;;;;;;;;;;;;19.13;51.1875;102494.2;;;;-72
2023/06/01 11:59:08;;;;;;;;;;;;;;;19.12;51.11816;102495.4;;;;-70
2023/06/01 11:59:50;;;;;;;0.2;0.1;;;;;;;;;;;;;-70
2023/06/01 12:04:02;;;;;;;;;;;;;;;19.08;51.20508;102492;;;;-70
2023/06/01 12:09:04;;;;;;;;;;;;;;;19.09;51.18359;102495.1;;;;-69
2023/06/01 12:14:05;;;;;;;;;;;;;;;19.08;51.27344;102499.3;;;;-72
2023/06/01 12:19:15;;;;;;;;;;;;;;;19.09;51.47949;102497.3;;;;-76
2023/06/01 12:24:05;;;;;;;;;;;;;;;19.1;51.42383;102495.3;;;;-70
2023/06/01 12:29:02;;;;;;;;;;;;;;;19.06;51.37305;102499.5;;;;-70
2023/06/01 12:29:42;;;;;;;0.2;0.1;;;;;;;;;;;;;-70
2023/06/01 12:34:05;;;;;;;;;;;;;;;18.96;51.53223;102499.7;;;;-69
2023/06/01 12:39:07;;;;;;;;;;;;;;;18.88;51.8877;102492.8;;;;-70
2023/06/01 12:44:02;;;;;;;;;;;;;;;18.88;51.8877;102487.8;;;;-71
2023/06/01 12:49:18;;;;;;;;;;;;;;;18.92;52.1084;102488.1;;;;-70
2023/06/01 12:54:03;;;;;;;;;;;;;;;18.97;52.37598;102491.3;;;;-70
2023/06/01 12:59:02;;;;;;;;;;;;;;;19.04;52.14453;102494.2;;;;-72
2023/06/01 12:59:44;;;;;;;0.2;0.1;;;;;;;;;;;;;-70
2023/06/01 13:04:03;;;;;;;;;;;;;;;19.04;52.08887;102492.9;;;;-70
2023/06/01 13:09:08;;;;;;;;;;;;;;;19.03;52.06348;102486.3;;;;-70
2023/06/01 13:14:02;;;;;;;;;;;;;;;19;52.13965;102483;;;;-71
2023/06/01 13:19:08;;;;;;;;;;;;;;;18.93;51.96094;102483.1;;;;-71
2023/06/01 13:24:03;;;;;;;;;;;;;;;18.87;52.03418;102483.6;;;;-70
2023/06/01 13:29:06;;;;;;;;;;;;;;;18.9;52.05957;102479.3;;;;-70
2023/06/01 13:29:46;;;;;;;0.2;0;;;;;;;;;;;;;-71
2023/06/01 13:34:03;;;;;;;;;;;;;;;18.96;51.81738;102473.8;;;;-69
2023/06/01 13:39:05;;;;;;;;;;;;;;;19.07;51.60254;102468.9;;;;-70
2023/06/01 13:44:02;;;;;;;;;;;;;;;19.19;51.26465;102470.5;;;;-70
2023/06/01 13:49:02;;;;;;;;;;;;;;;19.33;50.85742;102465.8;;;;-69
2023/06/01 13:54:04;;;;;;;;;;;;;;;19.42;50.51465;102472.4;;;;-70
2023/06/01 13:59:02;;;;;;;;;;;;;;;19.49;50.23926;102472.7;;;;-69
2023/06/01 13:59:48;;;;;;;0.2;0;;;;;;;;;;;;;-72
2023/06/01 14:04:03;;;;;;;;;;;;;;;19.56;49.88184;102476.2;;;;-69
2023/06/01 14:09:02;;;;;;;;;;;;;;;19.64;49.64063;102467;;;;-71
2023/06/01 14:14:02;;;;;;;;;;;;;;;19.75;49.37793;102470;;;;-70
2023/06/01 14:19:03;;;;;;;;;;;;;;;19.8;49.15625;102466.6;;;;-71
2023/06/01 14:24:02;;;;;;;;;;;;;;;19.79;48.91406;102466.6;;;;-70
2023/06/01 14:29:05;;;;;;;;;;;;;;;19.68;49.02832;102459;;;;-70
2023/06/01 14:29:51;;;;;;;0.2;0.1;;;;;;;;;;;;;-70
2023/06/01 14:34:02;;;;;;;;;;;;;;;19.62;49.09082;102453.6;;;;-70
2023/06/01 14:39:02;;;;;;;;;;;;;;;19.57;49.30176;102456.6;;;;-71
2023/06/01 14:44:02;;;;;;;;;;;;;;;19.5;49.21387;102453.2;;;;-70
2023/06/01 14:49:03;;;;;;;;;;;;;;;19.38;49.57715;102457.6;;;;-69
2023/06/01 14:54:03;;;;;;;;;;;;;;;19.29;49.9082;102453.3;;;;-69
2023/06/01 14:59:02;;;;;;;;;;;;;;;19.21;50.05859;102451.7;;;;-71
2023/06/01 14:59:55;;;;;;;0.4;0.2;;;;;;;;;;;;;-70
2023/06/01 15:04:02;;;;;;;;;;;;;;;19.19;50.01074;102448;;;;-70
2023/06/01 15:09:02;;;;;;;;;;;;;;;19.22;49.86719;102452.8;;;;-72
2023/06/01 15:14:02;;;;;;;;;;;;;;;19.21;49.77344;102449.6;;;;-69
2023/06/01 15:19:02;;;;;;;;;;;;;;;19.16;49.74512;102442.4;;;;-71
2023/06/01 15:24:05;;;;;;;;;;;;;;;19.16;49.59766;102438.1;;;;-69
2023/06/01 15:29:05;;;;;;;;;;;;;;;19.16;49.50684;102436.6;;;;-70
2023/06/01 15:29:57;;;;;;;0.2;0.1;;;;;;;;;;;;;-72
2023/06/01 15:34:04;;;;;;;;;;;;;;;19.13;49.50391;102432.7;;;;-69
2023/06/01 15:39:03;;;;;;;;;;;;;;;19.11;49.47754;102426.8;;;;-71
2023/06/01 15:44:03;;;;;;;;;;;;;;;19.04;49.45996;102428.8;;;;-69
2023/06/01 15:49:02;;;;;;;;;;;;;;;18.99;49.41797;102428.6;;;;-71
2023/06/01 15:54:03;;;;;;;;;;;;;;;18.9;49.48926;102422.5;;;;-69
2023/06/01 15:59:05;;;;;;;;;;;;;;;18.8;49.69434;102420.9;;;;-70
2023/06/01 16:00:00;;;;;;;0.2;0.1;;;;;;;;;;;;;-69
2023/06/01 16:04:02;;;;;;;;;;;;;;;18.69;49.86328;102416.4;;;;-70
2023/06/01 16:09:02;;;;;;;;;;;;;;;18.59;50.08008;102421.3;;;;-69
2023/06/01 16:14:04;;;;;;;;;;;;;;;18.49;50.10254;102417.6;;;;-69
2023/06/01 16:19:02;;;;;;;;;;;;;;;18.39;50.11523;102416.1;;;;-71
2023/06/01 16:24:02;;;;;;;;;;;;;;;18.31;50.00391;102416.3;;;;-71
2023/06/01 16:29:05;;;;;;;;;;;;;;;18.22;49.99219;102412.6;;;;-70
2023/06/01 16:30:06;;;;;;;0.2;0.1;;;;;;;;;;;;;-71
2023/06/01 16:34:03;;;;;;;;;;;;;;;18.16;50.03125;102415;;;;-69
2023/06/01 16:39:05;;;;;;;;;;;;;;;18.05;50.21191;102412.7;;;;-71
2023/06/01 16:44:05;;;;;;;;;;;;;;;17.95;50.30273;102408.1;;;;-69
2023/06/01 16:49:02;;;;;;;;;;;;;;;17.86;50.34863;102403.5;;;;-70
2023/06/01 16:54:04;;;;;;;;;;;;;;;17.78;50.60156;102399.7;;;;-71
2023/06/01 16:59:02;;;;;;;;;;;;;;;17.69;50.5459;102393.9;;;;-70
2023/06/01 17:00:10;;;;;;;0.2;0.1;;;;;;;;;;;;;-69
2023/06/01 17:04:02;;;;;;;;;;;;;;;17.6;50.70508;102395.8;;;;-70
2023/06/01 17:09:05;;;;;;;;;;;;;;;17.48;50.90723;102392.9;;;;-70
2023/06/01 17:14:02;;;;;;;;;;;;;;;17.42;50.99121;102388.5;;;;-71
2023/06/01 17:19:05;;;;;;;;;;;;;;;17.37;50.79297;102387.1;;;;-71
2023/06/01 17:24:04;;;;;;;;;;;;;;;17.3;50.85254;102377.2;;;;-72
2023/06/01 17:29:04;;;;;;;;;;;;;;;17.24;50.80078;102377.9;;;;-73
2023/06/01 17:30:08;;;;;;;0.3;0.1;;;;;;;;;;;;;-70
2023/06/01 17:34:02;;;;;;;;;;;;;;;17.19;50.97559;102380;;;;-70
2023/06/01 17:39:03;;;;;;;;;;;;;;;17.09;50.9873;102380.6;;;;-71
2023/06/01 17:44:09;;;;;;;;;;;;;;;17;50.95508;102381.2;;;;-69
2023/06/01 17:49:02;;;;;;;;;;;;;;;16.87;51.43848;102381.3;;;;-69
2023/06/01 17:54:05;;;;;;;;;;;;;;;16.79;51.7334;102379.9;;;;-71
2023/06/01 17:59:02;;;;;;;;;;;;;;;16.7;51.79004;102379.2;;;;-70
2023/06/01 18:00:15;;;;;;;0.2;0.1;;;;;;;;;;;;;-70
2023/06/01 18:04:03;;;;;;;;;;;;;;;16.6;51.13477;102383.6;;;;-69
2023/06/01 18:09:04;;;;;;;;;;;;;;;16.52;51.14746;102374.9;;;;-70
2023/06/01 18:14:05;;;;;;;;;;;;;;;16.39;51.0752;102380.8;;;;-69
2023/06/01 18:19:02;;;;;;;;;;;;;;;16.26;51.80762;102389.9;;;;-70
2023/06/01 18:24:05;;;;;;;;;;;;;;;16.16;51.13965;102389.9;;;;-68
2023/06/01 18:29:03;;;;;;;;;;;;;;;16.07;50.64355;102384.8;;;;-68
2023/06/01 18:30:13;;;;;;;0.2;0;;;;;;;;;;;;;-69
2023/06/01 18:34:04;;;;;;;;;;;;;;;15.98;50.79199;102387.5;;;;-69
2023/06/01 18:39:04;;;;;;;;;;;;;;;15.9;51.05371;102394.9;;;;-75
2023/06/01 18:44:17;;;;;;;;;;;;;;;15.79;51.26563;102384.8;;;;-73
2023/06/01 18:49:05;;;;;;;;;;;;;;;15.7;51.20996;102382.1;;;;-75
2023/06/01 18:54:14;;;;;;;;;;;;;;;15.63;51.05566;102376.4;;;;-74
2023/06/01 18:59:10;;;;;;;;;;;;;;;15.54;51.29395;102377.2;;;;-73
2023/06/01 19:00:18;;;;;;;0.2;0.1;;;;;;;;;;;;;-75
2023/06/01 19:04:05;;;;;;;;;;;;;;;15.46;51.36328;102376.9;;;;-76
2023/06/01 19:09:05;;;;;;;;;;;;;;;15.37;51.27344;102377.2;;;;-73
2023/06/01 19:14:02;;;;;;;;;;;;;;;15.3;51.45703;102373.8;;;;-74
2023/06/01 19:19:03;;;;;;;;;;;;;;;15.22;51.65039;102384.6;;;;-75
2023/06/01 19:24:10;;;;;;;;;;;;;;;15.15;51.81348;102383.6;;;;-77
2023/06/01 19:29:06;;;;;;;;;;;;;;;15.05;51.6875;102385.8;;;;-72
2023/06/01 19:30:17;;;;;;;0.2;0.1;;;;;;;;;;;;;-73
2023/06/01 19:34:06;;;;;;;;;;;;;;;14.97;52.15234;102389.5;;;;-73
2023/06/01 19:44:03;;;;;;;;;;;;;;;14.83;51.9668;102384.3;;;;-72
2023/06/01 19:49:06;;;;;;;;;;;;;;;14.74;52.0459;102391.6;;;;-72
2023/06/01 19:54:13;;;;;;;;;;;;;;;14.68;52.27441;102387.9;;;;-76
2023/06/01 20:00:32;;;;;;;0.2;0.1;;;;;;;;;;;;;-75
2023/06/01 20:04:36;;;;;;;;;;;;;;;14.52;52.59375;102398.9;;;;-73
2023/06/01 20:16:37;;;;;;;;;;;;;;;14.33;52.65039;102402.2;;;;-76
2023/06/01 20:21:20;;;;;;;;;;;;;;;14.28;52.66602;102409.2;;;;-73
2023/06/01 20:26:34;;;;;;;;;;;;;;;14.2;52.78027;102409.7;;;;-74
2023/06/01 20:30:40;;;;;;;0.2;0.1;;;;;;;;;;;;;-74
2023/06/01 20:31:21;;;;;;;;;;;;;;;14.14;52.7168;102404.7;;;;-73
2023/06/01 20:36:20;;;;;;;;;;;;;;;14.07;52.68555;102402.4;;;;-74
2023/06/01 20:41:22;;;;;;;;;;;;;;;14.03;52.66895;102397.8;;;;-73
2023/06/01 20:46:21;;;;;;;;;;;;;;;13.95;52.75;102399.8;;;;-74
2023/06/01 20:51:20;;;;;;;;;;;;;;;13.91;52.73438;102396.3;;;;-73
2023/06/01 20:56:44;;;;;;;;;;;;;;;13.86;52.73926;102396.8;;;;-72
2023/06/01 21:00:25;;;;;;;0.4;0.3;;;;;;;;;;;;;-70
2023/06/01 21:01:24;;;;;;;;;;;;;;;13.8;52.7998;102395.3;;;;-69
2023/06/01 21:06:17;;;;;;;;;;;;;;;13.78;52.8418;102382;;;;-71
2023/06/01 21:11:17;;;;;;;;;;;;;;;13.72;52.82422;102389.3;;;;-69
2023/06/01 21:16:19;;;;;;;;;;;;;;;13.69;52.70801;102383;;;;-70
2023/06/01 21:21:22;;;;;;;;;;;;;;;13.64;52.91504;102379.2;;;;-69
2023/06/01 21:26:18;;;;;;;;;;;;;;;13.6;52.91016;102376;;;;-69
2023/06/01 21:30:27;;;;;;;0.2;0;;;;;;;;;;;;;-69
2023/06/01 21:31:18;;;;;;;;;;;;;;;13.57;53.1543;102386;;;;-70
2023/06/01 21:36:20;;;;;;;;;;;;;;;13.55;53.10742;102388.6;;;;-70
2023/06/01 21:41:20;;;;;;;;;;;;;;;13.49;53.25586;102390.6;;;;-71
2023/06/01 21:46:17;;;;;;;;;;;;;;;13.47;53.32227;102390.5;;;;-68
2023/06/01 21:51:26;;;;;;;;;;;;;;;13.42;53.39453;102385.4;;;;-69
2023/06/01 21:56:18;;;;;;;;;;;;;;;13.42;53.125;102387.8;;;;-69
2023/06/01 22:00:26;;;;;;;0.2;0.1;;;;;;;;;;;;;-69
2023/06/01 22:01:17;;;;;;;;;;;;;;;13.39;53.27734;102381.4;;;;-69
2023/06/01 22:06:17;;;;;;;;;;;;;;;13.37;53.28809;102381.3;;;;-72
2023/06/01 22:11:19;;;;;;;;;;;;;;;13.36;53.41992;102383.2;;;;-68
2023/06/01 22:16:17;;;;;;;;;;;;;;;13.32;53.61816;102388.1;;;;-71
2023/06/01 22:21:20;;;;;;;;;;;;;;;13.31;53.58301;102387.1;;;;-69
2023/06/01 22:26:17;;;;;;;;;;;;;;;13.26;53.79004;102389.5;;;;-70
2023/06/01 22:30:30;;;;;;;0.3;0.2;;;;;;;;;;;;;-70
2023/06/01 22:31:17;;;;;;;;;;;;;;;13.2;54.25391;102391.2;;;;-70
2023/06/01 22:36:17;;;;;;;;;;;;;;;13.18;54.03711;102395.9;;;;-69
2023/06/01 22:41:20;;;;;;;;;;;;;;;13.13;54.14453;102397.9;;;;-70
2023/06/01 22:46:19;;;;;;;;;;;;;;;13.1;54.02832;102406.1;;;;-70
2023/06/01 22:51:17;;;;;;;;;;;;;;;13.08;53.83594;102402.8;;;;-69
2023/06/01 22:56:21;;;;;;;;;;;;;;;13.05;53.80859;102404.9;;;;-69
2023/06/01 23:00:29;;;;;;;0.2;0.1;;;;;;;;;;;;;-69
2023/06/01 23:01:17;;;;;;;;;;;;;;;13.02;53.86133;102401.9;;;;-68
2023/06/01 23:06:20;;;;;;;;;;;;;;;13;53.92676;102403.9;;;;-70
2023/06/01 23:11:17;;;;;;;;;;;;;;;12.96;53.75293;102399;;;;-69
2023/06/01 23:16:19;;;;;;;;;;;;;;;12.94;53.91992;102398.3;;;;-69
2023/06/01 23:21:17;;;;;;;;;;;;;;;12.91;53.92676;102399.8;;;;-71
2023/06/01 23:26:18;;;;;;;;;;;;;;;12.87;54.04492;102402.1;;;;-69
2023/06/01 23:30:30;;;;;;;0.3;0.2;;;;;;;;;;;;;-69
2023/06/01 23:31:17;;;;;;;;;;;;;;;12.84;54.34375;102400.4;;;;-70
2023/06/01 23:36:27;;;;;;;;;;;;;;;12.82;53.98242;102406.3;;;;-69
2023/06/01 23:41:17;;;;;;;;;;;;;;;12.81;54.23926;102408.3;;;;-69
2023/06/01 23:46:20;;;;;;;;;;;;;;;12.77;54.06641;102405.6;;;;-70
2023/06/01 23:51:17;;;;;;;;;;;;;;;12.73;54.25195;102404.5;;;;-70
2023/06/01 23:56:17;;;;;;;;;;;;;;;12.69;54.17969;102403.6;;;;-70
